VTPM

Mae Sot Airport

Thailand
TAF VTPM 171700Z 1718/1818 09005KT 9999 FEW025
Issued Valid From Valid To
Jan-17 @ 17:00 UTC
(6 hours ago)
Jan-17 @ 18:00 UTC
(5 hours ago)
Jan-18 @ 18:00 UTC
(in 19 hours)
Jan-17 @ 18:00 to Jan-18 @ 18:00
TAF VTPM 171700Z 1718/1818 09005KT 9999 FEW025
Wind Visibility Clouds
90° at 5 knots 10,000+ meters
  • Few at 2,500' AGL
TAF VTPM 171700Z 1718/1818 09005KT 9999 FEW025
Issued Jan-17 @ 17:00 UTC
(6 hours ago)
Valid From Jan-17 @ 18:00 UTC
(5 hours ago)
Valid To Jan-18 @ 18:00 UTC
(in 19 hours)
Jan-17 @ 18:00 - Jan-18 @ 18:00
Wind Visibility
90° at 5 knots 10,000+ meters
Clouds
  • Few at 2,500' AGL